sensor_id;sensor_type;location;lat;lon;timestamp;temperature;humidity
37446;DHT22;23307;51.136;14.942;2023-11-19T00:00:26;5.40;99.90
37446;DHT22;23307;51.136;14.942;2023-11-19T00:02:52;5.40;99.90
37446;DHT22;23307;51.136;14.942;2023-11-19T00:05:18;5.40;99.90
37446;DHT22;23307;51.136;14.942;2023-11-19T00:07:44;5.40;99.90
37446;DHT22;23307;51.136;14.942;2023-11-19T00:10:14;5.40;99.90
37446;DHT22;23307;51.136;14.942;2023-11-19T00:12:45;5.40;99.90
37446;DHT22;23307;51.136;14.942;2023-11-19T00:15:15;5.40;99.90
37446;DHT22;23307;51.136;14.942;2023-11-19T00:17:42;5.40;99.90
37446;DHT22;23307;51.136;14.942;2023-11-19T00:20:12;5.50;99.90
37446;DHT22;23307;51.136;14.942;2023-11-19T00:22:38;5.50;99.90
37446;DHT22;23307;51.136;14.942;2023-11-19T00:25:04;5.50;99.90
37446;DHT22;23307;51.136;14.942;2023-11-19T00:27:30;5.50;99.90
37446;DHT22;23307;51.136;14.942;2023-11-19T00:29:56;5.50;99.90
37446;DHT22;23307;51.136;14.942;2023-11-19T00:32:22;5.50;99.90
37446;DHT22;23307;51.136;14.942;2023-11-19T00:34:47;5.50;99.90
37446;DHT22;23307;51.136;14.942;2023-11-19T00:37:14;5.50;99.90
37446;DHT22;23307;51.136;14.942;2023-11-19T00:39:41;5.60;99.90
37446;DHT22;23307;51.136;14.942;2023-11-19T00:42:06;5.60;99.90
37446;DHT22;23307;51.136;14.942;2023-11-19T00:44:32;5.60;99.90
37446;DHT22;23307;51.136;14.942;2023-11-19T00:46:57;5.60;99.90
37446;DHT22;23307;51.136;14.942;2023-11-19T00:49:25;5.60;99.90
37446;DHT22;23307;51.136;14.942;2023-11-19T00:51:50;5.60;99.90
37446;DHT22;23307;51.136;14.942;2023-11-19T00:54:15;5.60;99.90
37446;DHT22;23307;51.136;14.942;2023-11-19T00:56:41;5.60;99.90
37446;DHT22;23307;51.136;14.942;2023-11-19T00:59:07;5.60;99.90
37446;DHT22;23307;51.136;14.942;2023-11-19T01:01:33;5.60;99.90
37446;DHT22;23307;51.136;14.942;2023-11-19T01:03:58;5.60;99.90
37446;DHT22;23307;51.136;14.942;2023-11-19T01:06:31;5.60;99.90
37446;DHT22;23307;51.136;14.942;2023-11-19T01:08:57;5.50;99.90
37446;DHT22;23307;51.136;14.942;2023-11-19T01:11:23;5.60;99.90
37446;DHT22;23307;51.136;14.942;2023-11-19T01:13:48;5.60;99.90
37446;DHT22;23307;51.136;14.942;2023-11-19T01:16:14;5.60;99.90
37446;DHT22;23307;51.136;14.942;2023-11-19T01:18:40;5.60;99.90
37446;DHT22;23307;51.136;14.942;2023-11-19T01:21:05;5.60;99.90
37446;DHT22;23307;51.136;14.942;2023-11-19T01:23:31;5.50;99.90
37446;DHT22;23307;51.136;14.942;2023-11-19T01:25:58;5.60;99.90
37446;DHT22;23307;51.136;14.942;2023-11-19T01:28:23;5.60;99.90
37446;DHT22;23307;51.136;14.942;2023-11-19T01:30:51;5.60;99.90
37446;DHT22;23307;51.136;14.942;2023-11-19T01:33:16;5.60;99.90
37446;DHT22;23307;51.136;14.942;2023-11-19T01:35:42;5.50;99.90
37446;DHT22;23307;51.136;14.942;2023-11-19T01:38:07;5.50;99.90
37446;DHT22;23307;51.136;14.942;2023-11-19T01:40:36;5.50;99.90
37446;DHT22;23307;51.136;14.942;2023-11-19T01:43:03;5.50;99.90
37446;DHT22;23307;51.136;14.942;2023-11-19T01:45:30;5.50;99.90
37446;DHT22;23307;51.136;14.942;2023-11-19T01:48:01;5.50;99.90
37446;DHT22;23307;51.136;14.942;2023-11-19T01:50:29;5.40;99.90
37446;DHT22;23307;51.136;14.942;2023-11-19T01:52:55;5.40;99.90
37446;DHT22;23307;51.136;14.942;2023-11-19T01:55:24;5.40;99.90
37446;DHT22;23307;51.136;14.942;2023-11-19T01:57:50;5.40;99.90
37446;DHT22;23307;51.136;14.942;2023-11-19T02:00:18;5.40;99.90
37446;DHT22;23307;51.136;14.942;2023-11-19T02:02:46;5.40;99.90
37446;DHT22;23307;51.136;14.942;2023-11-19T02:05:12;5.30;99.90
37446;DHT22;23307;51.136;14.942;2023-11-19T02:07:38;5.30;99.90
37446;DHT22;23307;51.136;14.942;2023-11-19T02:10:04;5.30;99.90
37446;DHT22;23307;51.136;14.942;2023-11-19T02:12:31;5.20;99.90
37446;DHT22;23307;51.136;14.942;2023-11-19T02:14:59;5.20;99.90
37446;DHT22;23307;51.136;14.942;2023-11-19T02:17:29;5.20;99.90
37446;DHT22;23307;51.136;14.942;2023-11-19T02:19:56;5.20;99.90
37446;DHT22;23307;51.136;14.942;2023-11-19T02:22:22;5.20;99.90
37446;DHT22;23307;51.136;14.942;2023-11-19T02:24:51;5.20;99.90
37446;DHT22;23307;51.136;14.942;2023-11-19T02:27:51;5.10;99.90
37446;DHT22;23307;51.136;14.942;2023-11-19T02:30:21;5.10;99.90
37446;DHT22;23307;51.136;14.942;2023-11-19T02:32:46;5.00;99.90
37446;DHT22;23307;51.136;14.942;2023-11-19T02:35:13;4.90;99.90
37446;DHT22;23307;51.136;14.942;2023-11-19T02:37:39;4.90;99.90
37446;DHT22;23307;51.136;14.942;2023-11-19T02:40:05;4.80;99.90
37446;DHT22;23307;51.136;14.942;2023-11-19T02:42:33;4.80;99.90
37446;DHT22;23307;51.136;14.942;2023-11-19T02:44:59;4.70;99.90
37446;DHT22;23307;51.136;14.942;2023-11-19T02:47:25;4.70;99.90
37446;DHT22;23307;51.136;14.942;2023-11-19T02:49:51;4.70;99.90
37446;DHT22;23307;51.136;14.942;2023-11-19T02:52:18;4.60;99.90
37446;DHT22;23307;51.136;14.942;2023-11-19T02:54:44;4.60;99.90
37446;DHT22;23307;51.136;14.942;2023-11-19T02:57:10;4.50;99.90
37446;DHT22;23307;51.136;14.942;2023-11-19T02:59:39;4.50;99.90
37446;DHT22;23307;51.136;14.942;2023-11-19T03:02:07;4.50;99.90
37446;DHT22;23307;51.136;14.942;2023-11-19T03:04:35;4.50;99.90
37446;DHT22;23307;51.136;14.942;2023-11-19T03:07:01;4.40;99.90
37446;DHT22;23307;51.136;14.942;2023-11-19T03:09:27;4.40;99.90
37446;DHT22;23307;51.136;14.942;2023-11-19T03:11:54;4.40;99.90
37446;DHT22;23307;51.136;14.942;2023-11-19T03:14:19;4.40;99.90
37446;DHT22;23307;51.136;14.942;2023-11-19T03:16:45;4.40;99.90
37446;DHT22;23307;51.136;14.942;2023-11-19T03:19:14;4.50;99.90
37446;DHT22;23307;51.136;14.942;2023-11-19T03:21:40;4.50;99.90
37446;DHT22;23307;51.136;14.942;2023-11-19T03:24:06;4.50;99.90
37446;DHT22;23307;51.136;14.942;2023-11-19T03:26:32;4.40;99.90
37446;DHT22;23307;51.136;14.942;2023-11-19T03:28:59;4.40;99.90
37446;DHT22;23307;51.136;14.942;2023-11-19T03:31:24;4.40;99.90
37446;DHT22;23307;51.136;14.942;2023-11-19T03:33:50;4.40;99.90
37446;DHT22;23307;51.136;14.942;2023-11-19T03:36:16;4.40;99.90
37446;DHT22;23307;51.136;14.942;2023-11-19T03:38:41;4.40;99.90
37446;DHT22;23307;51.136;14.942;2023-11-19T03:41:14;4.40;99.90
37446;DHT22;23307;51.136;14.942;2023-11-19T03:43:40;4.40;99.90
37446;DHT22;23307;51.136;14.942;2023-11-19T03:46:21;4.40;99.90
37446;DHT22;23307;51.136;14.942;2023-11-19T03:48:48;4.50;99.90
37446;DHT22;23307;51.136;14.942;2023-11-19T03:51:14;4.40;99.90
37446;DHT22;23307;51.136;14.942;2023-11-19T03:53:46;4.40;99.90
37446;DHT22;23307;51.136;14.942;2023-11-19T03:56:12;4.50;99.90
37446;DHT22;23307;51.136;14.942;2023-11-19T03:58:39;4.50;99.90
37446;DHT22;23307;51.136;14.942;2023-11-19T04:01:05;4.50;99.90
37446;DHT22;23307;51.136;14.942;2023-11-19T04:03:31;4.50;99.90
37446;DHT22;23307;51.136;14.942;2023-11-19T04:05:56;4.50;99.90
37446;DHT22;23307;51.136;14.942;2023-11-19T04:08:22;4.50;99.90
37446;DHT22;23307;51.136;14.942;2023-11-19T04:10:48;4.50;99.90
37446;DHT22;23307;51.136;14.942;2023-11-19T04:13:13;4.50;99.90
37446;DHT22;23307;51.136;14.942;2023-11-19T04:15:39;4.50;99.90
37446;DHT22;23307;51.136;14.942;2023-11-19T04:18:05;4.50;99.90
37446;DHT22;23307;51.136;14.942;2023-11-19T04:20:30;4.50;99.90
37446;DHT22;23307;51.136;14.942;2023-11-19T04:22:57;4.60;99.90
37446;DHT22;23307;51.136;14.942;2023-11-19T04:25:22;4.60;99.90
37446;DHT22;23307;51.136;14.942;2023-11-19T04:27:49;4.60;99.90
37446;DHT22;23307;51.136;14.942;2023-11-19T04:30:15;4.60;99.90
37446;DHT22;23307;51.136;14.942;2023-11-19T04:32:40;4.60;99.90
37446;DHT22;23307;51.136;14.942;2023-11-19T04:35:06;4.60;99.90
37446;DHT22;23307;51.136;14.942;2023-11-19T04:37:32;4.60;99.90
37446;DHT22;23307;51.136;14.942;2023-11-19T04:39:58;4.60;99.90
37446;DHT22;23307;51.136;14.942;2023-11-19T04:42:25;4.60;99.90
37446;DHT22;23307;51.136;14.942;2023-11-19T04:44:50;4.60;99.90
37446;DHT22;23307;51.136;14.942;2023-11-19T04:47:16;4.60;99.90
37446;DHT22;23307;51.136;14.942;2023-11-19T04:49:42;4.60;99.90
37446;DHT22;23307;51.136;14.942;2023-11-19T04:52:08;4.60;99.90
37446;DHT22;23307;51.136;14.942;2023-11-19T04:54:34;4.60;99.90
37446;DHT22;23307;51.136;14.942;2023-11-19T04:56:59;4.60;99.90
37446;DHT22;23307;51.136;14.942;2023-11-19T04:59:25;4.60;99.90
37446;DHT22;23307;51.136;14.942;2023-11-19T05:01:50;4.50;99.90
37446;DHT22;23307;51.136;14.942;2023-11-19T05:04:17;4.50;99.90
37446;DHT22;23307;51.136;14.942;2023-11-19T05:06:44;4.60;99.90
37446;DHT22;23307;51.136;14.942;2023-11-19T05:09:09;4.60;99.90
37446;DHT22;23307;51.136;14.942;2023-11-19T05:11:37;4.60;99.90
37446;DHT22;23307;51.136;14.942;2023-11-19T05:14:04;4.60;99.90
37446;DHT22;23307;51.136;14.942;2023-11-19T05:16:30;4.70;99.90
37446;DHT22;23307;51.136;14.942;2023-11-19T05:18:56;4.70;99.90
37446;DHT22;23307;51.136;14.942;2023-11-19T05:21:22;4.70;99.90
37446;DHT22;23307;51.136;14.942;2023-11-19T05:23:47;4.70;99.90
37446;DHT22;23307;51.136;14.942;2023-11-19T05:26:23;4.70;99.90
37446;DHT22;23307;51.136;14.942;2023-11-19T05:28:49;4.70;99.90
37446;DHT22;23307;51.136;14.942;2023-11-19T05:31:16;4.70;99.90
37446;DHT22;23307;51.136;14.942;2023-11-19T05:33:42;4.70;99.90
37446;DHT22;23307;51.136;14.942;2023-11-19T05:36:08;4.80;99.90
37446;DHT22;23307;51.136;14.942;2023-11-19T05:38:35;4.80;99.90
37446;DHT22;23307;51.136;14.942;2023-11-19T05:41:01;4.80;99.90
37446;DHT22;23307;51.136;14.942;2023-11-19T05:43:26;4.80;99.90
37446;DHT22;23307;51.136;14.942;2023-11-19T05:45:52;4.80;99.90
37446;DHT22;23307;51.136;14.942;2023-11-19T05:48:17;4.80;99.90
37446;DHT22;23307;51.136;14.942;2023-11-19T05:50:43;4.80;99.90
37446;DHT22;23307;51.136;14.942;2023-11-19T05:53:09;4.80;99.90
37446;DHT22;23307;51.136;14.942;2023-11-19T05:55:36;4.80;99.90
37446;DHT22;23307;51.136;14.942;2023-11-19T05:58:10;4.80;99.90
37446;DHT22;23307;51.136;14.942;2023-11-19T06:00:38;4.80;99.90
37446;DHT22;23307;51.136;14.942;2023-11-19T06:03:03;4.80;99.90
37446;DHT22;23307;51.136;14.942;2023-11-19T06:05:29;4.80;99.90
37446;DHT22;23307;51.136;14.942;2023-11-19T06:07:55;4.80;99.90
37446;DHT22;23307;51.136;14.942;2023-11-19T06:10:20;4.80;99.90
37446;DHT22;23307;51.136;14.942;2023-11-19T06:12:46;4.90;99.90
37446;DHT22;23307;51.136;14.942;2023-11-19T06:15:12;4.90;99.90
37446;DHT22;23307;51.136;14.942;2023-11-19T06:17:38;4.90;99.90
37446;DHT22;23307;51.136;14.942;2023-11-19T06:20:05;4.90;99.90
37446;DHT22;23307;51.136;14.942;2023-11-19T06:22:30;4.90;99.90
37446;DHT22;23307;51.136;14.942;2023-11-19T06:24:56;4.90;99.90
37446;DHT22;23307;51.136;14.942;2023-11-19T06:27:21;4.90;99.90
37446;DHT22;23307;51.136;14.942;2023-11-19T06:29:47;4.90;99.90
37446;DHT22;23307;51.136;14.942;2023-11-19T06:32:13;4.90;99.90
37446;DHT22;23307;51.136;14.942;2023-11-19T06:34:38;4.90;99.90
37446;DHT22;23307;51.136;14.942;2023-11-19T06:37:04;4.90;99.90
37446;DHT22;23307;51.136;14.942;2023-11-19T06:39:30;4.90;99.90
37446;DHT22;23307;51.136;14.942;2023-11-19T06:41:55;4.90;99.90
37446;DHT22;23307;51.136;14.942;2023-11-19T06:44:21;4.90;99.90
37446;DHT22;23307;51.136;14.942;2023-11-19T06:46:48;4.90;99.90
37446;DHT22;23307;51.136;14.942;2023-11-19T06:49:14;4.90;99.90
37446;DHT22;23307;51.136;14.942;2023-11-19T06:51:42;5.00;99.90
37446;DHT22;23307;51.136;14.942;2023-11-19T06:54:09;5.00;99.90
37446;DHT22;23307;51.136;14.942;2023-11-19T06:56:34;5.00;99.90
37446;DHT22;23307;51.136;14.942;2023-11-19T06:59:00;5.00;99.90
37446;DHT22;23307;51.136;14.942;2023-11-19T07:01:25;5.00;99.90
37446;DHT22;23307;51.136;14.942;2023-11-19T07:03:52;5.00;99.90
37446;DHT22;23307;51.136;14.942;2023-11-19T07:06:17;5.00;99.90
37446;DHT22;23307;51.136;14.942;2023-11-19T07:08:43;5.00;99.90
37446;DHT22;23307;51.136;14.942;2023-11-19T07:11:13;5.00;99.90
37446;DHT22;23307;51.136;14.942;2023-11-19T07:13:40;4.90;99.90
37446;DHT22;23307;51.136;14.942;2023-11-19T07:16:07;5.00;99.90
37446;DHT22;23307;51.136;14.942;2023-11-19T07:18:35;5.00;99.90
37446;DHT22;23307;51.136;14.942;2023-11-19T07:21:01;5.00;99.90
37446;DHT22;23307;51.136;14.942;2023-11-19T07:23:28;5.00;99.90
37446;DHT22;23307;51.136;14.942;2023-11-19T07:25:53;5.00;99.90
37446;DHT22;23307;51.136;14.942;2023-11-19T07:28:19;5.00;99.90
37446;DHT22;23307;51.136;14.942;2023-11-19T07:30:44;5.10;99.90
37446;DHT22;23307;51.136;14.942;2023-11-19T07:33:10;5.10;99.90
37446;DHT22;23307;51.136;14.942;2023-11-19T07:35:36;5.10;99.90
37446;DHT22;23307;51.136;14.942;2023-11-19T07:38:01;5.10;99.90
37446;DHT22;23307;51.136;14.942;2023-11-19T07:40:27;5.10;99.90
37446;DHT22;23307;51.136;14.942;2023-11-19T07:42:53;5.10;99.90
37446;DHT22;23307;51.136;14.942;2023-11-19T07:45:19;5.10;99.90
37446;DHT22;23307;51.136;14.942;2023-11-19T07:47:44;5.20;99.90
37446;DHT22;23307;51.136;14.942;2023-11-19T07:50:10;5.20;99.90
37446;DHT22;23307;51.136;14.942;2023-11-19T07:52:37;5.20;99.90
37446;DHT22;23307;51.136;14.942;2023-11-19T07:55:02;5.30;99.90
37446;DHT22;23307;51.136;14.942;2023-11-19T07:57:28;5.30;99.90
37446;DHT22;23307;51.136;14.942;2023-11-19T07:59:56;5.30;99.90
37446;DHT22;23307;51.136;14.942;2023-11-19T08:02:22;5.40;99.90
37446;DHT22;23307;51.136;14.942;2023-11-19T08:04:49;5.40;99.90
37446;DHT22;23307;51.136;14.942;2023-11-19T08:07:20;5.40;99.90
37446;DHT22;23307;51.136;14.942;2023-11-19T08:09:46;5.30;99.90
37446;DHT22;23307;51.136;14.942;2023-11-19T08:12:11;5.30;99.90
37446;DHT22;23307;51.136;14.942;2023-11-19T08:14:39;5.30;99.90
37446;DHT22;23307;51.136;14.942;2023-11-19T08:17:05;5.30;99.90
37446;DHT22;23307;51.136;14.942;2023-11-19T08:19:30;5.30;99.90
37446;DHT22;23307;51.136;14.942;2023-11-19T08:21:56;5.30;99.90
37446;DHT22;23307;51.136;14.942;2023-11-19T08:24:22;5.30;99.90
37446;DHT22;23307;51.136;14.942;2023-11-19T08:26:48;5.30;99.90
37446;DHT22;23307;51.136;14.942;2023-11-19T08:29:13;5.30;99.90
37446;DHT22;23307;51.136;14.942;2023-11-19T08:31:39;5.30;99.90
37446;DHT22;23307;51.136;14.942;2023-11-19T08:34:05;5.30;99.90
37446;DHT22;23307;51.136;14.942;2023-11-19T08:36:34;5.30;99.90
37446;DHT22;23307;51.136;14.942;2023-11-19T08:38:59;5.30;99.90
37446;DHT22;23307;51.136;14.942;2023-11-19T08:41:25;5.30;99.90
37446;DHT22;23307;51.136;14.942;2023-11-19T08:43:51;5.30;99.90
37446;DHT22;23307;51.136;14.942;2023-11-19T08:46:17;5.40;99.90
37446;DHT22;23307;51.136;14.942;2023-11-19T08:48:42;5.40;99.90
37446;DHT22;23307;51.136;14.942;2023-11-19T08:51:08;5.40;99.90
37446;DHT22;23307;51.136;14.942;2023-11-19T08:53:34;5.40;99.90
37446;DHT22;23307;51.136;14.942;2023-11-19T08:55:59;5.40;99.90
37446;DHT22;23307;51.136;14.942;2023-11-19T08:58:26;5.40;99.90
37446;DHT22;23307;51.136;14.942;2023-11-19T09:00:51;5.50;99.90
37446;DHT22;23307;51.136;14.942;2023-11-19T09:03:17;5.50;99.90
37446;DHT22;23307;51.136;14.942;2023-11-19T09:05:42;5.50;99.90
37446;DHT22;23307;51.136;14.942;2023-11-19T09:08:07;5.50;99.90
37446;DHT22;23307;51.136;14.942;2023-11-19T09:10:33;5.50;99.90
37446;DHT22;23307;51.136;14.942;2023-11-19T09:12:59;5.60;99.90
37446;DHT22;23307;51.136;14.942;2023-11-19T09:15:24;5.60;99.90
37446;DHT22;23307;51.136;14.942;2023-11-19T09:17:50;5.60;99.90
37446;DHT22;23307;51.136;14.942;2023-11-19T09:20:16;5.60;99.90
37446;DHT22;23307;51.136;14.942;2023-11-19T09:22:42;5.60;99.90
37446;DHT22;23307;51.136;14.942;2023-11-19T09:25:08;5.60;99.90
37446;DHT22;23307;51.136;14.942;2023-11-19T09:27:33;5.60;99.90
37446;DHT22;23307;51.136;14.942;2023-11-19T09:29:59;5.60;99.90
37446;DHT22;23307;51.136;14.942;2023-11-19T09:32:25;5.70;99.90
37446;DHT22;23307;51.136;14.942;2023-11-19T09:34:51;5.70;99.90
37446;DHT22;23307;51.136;14.942;2023-11-19T09:37:16;5.70;99.90
37446;DHT22;23307;51.136;14.942;2023-11-19T09:39:42;5.70;99.90
37446;DHT22;23307;51.136;14.942;2023-11-19T09:42:12;5.70;99.90
37446;DHT22;23307;51.136;14.942;2023-11-19T09:44:38;5.70;99.90
37446;DHT22;23307;51.136;14.942;2023-11-19T09:47:05;5.70;99.90
37446;DHT22;23307;51.136;14.942;2023-11-19T09:49:32;5.70;99.90
37446;DHT22;23307;51.136;14.942;2023-11-19T09:51:57;5.80;99.90
37446;DHT22;23307;51.136;14.942;2023-11-19T09:54:23;5.90;99.90
37446;DHT22;23307;51.136;14.942;2023-11-19T09:56:49;5.90;99.90
37446;DHT22;23307;51.136;14.942;2023-11-19T09:59:15;6.00;99.90
37446;DHT22;23307;51.136;14.942;2023-11-19T10:01:42;6.00;99.90
37446;DHT22;23307;51.136;14.942;2023-11-19T10:04:09;6.00;99.90
37446;DHT22;23307;51.136;14.942;2023-11-19T10:06:35;6.00;99.90
37446;DHT22;23307;51.136;14.942;2023-11-19T10:09:00;6.10;99.90
37446;DHT22;23307;51.136;14.942;2023-11-19T10:11:26;6.10;99.90
37446;DHT22;23307;51.136;14.942;2023-11-19T10:13:53;6.10;99.90
37446;DHT22;23307;51.136;14.942;2023-11-19T10:16:19;6.10;99.90
37446;DHT22;23307;51.136;14.942;2023-11-19T10:18:46;6.30;99.90
37446;DHT22;23307;51.136;14.942;2023-11-19T10:21:15;6.30;99.90
37446;DHT22;23307;51.136;14.942;2023-11-19T10:23:56;6.50;99.90
37446;DHT22;23307;51.136;14.942;2023-11-19T10:26:24;6.70;99.90
37446;DHT22;23307;51.136;14.942;2023-11-19T10:28:49;6.80;99.90
37446;DHT22;23307;51.136;14.942;2023-11-19T10:31:17;6.90;99.90
37446;DHT22;23307;51.136;14.942;2023-11-19T10:33:44;6.90;99.90
37446;DHT22;23307;51.136;14.942;2023-11-19T10:36:13;6.90;99.90
37446;DHT22;23307;51.136;14.942;2023-11-19T10:38:40;7.00;99.90
37446;DHT22;23307;51.136;14.942;2023-11-19T10:41:06;7.00;99.90
37446;DHT22;23307;51.136;14.942;2023-11-19T10:43:42;7.00;99.90
37446;DHT22;23307;51.136;14.942;2023-11-19T10:46:11;7.10;99.90
37446;DHT22;23307;51.136;14.942;2023-11-19T10:48:37;7.10;99.90
37446;DHT22;23307;51.136;14.942;2023-11-19T10:51:05;7.10;99.90
37446;DHT22;23307;51.136;14.942;2023-11-19T10:53:36;7.10;99.90
37446;DHT22;23307;51.136;14.942;2023-11-19T10:56:02;7.10;99.90
37446;DHT22;23307;51.136;14.942;2023-11-19T10:58:32;7.10;99.90
37446;DHT22;23307;51.136;14.942;2023-11-19T11:01:01;7.20;99.90
37446;DHT22;23307;51.136;14.942;2023-11-19T11:03:37;7.40;99.90
37446;DHT22;23307;51.136;14.942;2023-11-19T11:06:05;7.50;99.90
37446;DHT22;23307;51.136;14.942;2023-11-19T11:08:31;7.70;99.90
37446;DHT22;23307;51.136;14.942;2023-11-19T11:10:57;7.80;99.90
37446;DHT22;23307;51.136;14.942;2023-11-19T11:13:26;7.90;99.90
37446;DHT22;23307;51.136;14.942;2023-11-19T11:15:55;8.10;99.90
37446;DHT22;23307;51.136;14.942;2023-11-19T11:18:23;8.20;99.90
37446;DHT22;23307;51.136;14.942;2023-11-19T11:20:54;8.40;99.90
37446;DHT22;23307;51.136;14.942;2023-11-19T11:32:11;8.60;99.90
37446;DHT22;23307;51.136;14.942;2023-11-19T11:34:49;8.70;99.90
37446;DHT22;23307;51.136;14.942;2023-11-19T11:37:26;8.80;99.90
37446;DHT22;23307;51.136;14.942;2023-11-19T11:39:53;8.90;99.90
37446;DHT22;23307;51.136;14.942;2023-11-19T11:45:12;9.10;99.90
37446;DHT22;23307;51.136;14.942;2023-11-19T11:50:17;9.50;99.90
37446;DHT22;23307;51.136;14.942;2023-11-19T11:55:28;9.60;99.90
37446;DHT22;23307;51.136;14.942;2023-11-19T11:57:54;9.90;99.90
37446;DHT22;23307;51.136;14.942;2023-11-19T12:00:31;10.00;99.90
37446;DHT22;23307;51.136;14.942;2023-11-19T12:03:01;10.10;99.90
37446;DHT22;23307;51.136;14.942;2023-11-19T12:05:27;10.30;99.90
37446;DHT22;23307;51.136;14.942;2023-11-19T12:07:56;10.40;99.90
37446;DHT22;23307;51.136;14.942;2023-11-19T12:10:25;10.60;99.90
37446;DHT22;23307;51.136;14.942;2023-11-19T12:12:58;10.70;99.90
37446;DHT22;23307;51.136;14.942;2023-11-19T12:15:24;10.70;99.90
37446;DHT22;23307;51.136;14.942;2023-11-19T12:17:52;10.80;99.90
37446;DHT22;23307;51.136;14.942;2023-11-19T12:20:20;10.90;99.90
37446;DHT22;23307;51.136;14.942;2023-11-19T12:22:47;11.00;99.90
37446;DHT22;23307;51.136;14.942;2023-11-19T12:25:14;11.10;99.90
37446;DHT22;23307;51.136;14.942;2023-11-19T12:27:49;11.20;99.90
37446;DHT22;23307;51.136;14.942;2023-11-19T12:30:22;11.30;99.90
37446;DHT22;23307;51.136;14.942;2023-11-19T12:32:49;11.30;99.90
37446;DHT22;23307;51.136;14.942;2023-11-19T12:35:15;11.40;99.90
37446;DHT22;23307;51.136;14.942;2023-11-19T12:42:43;11.40;99.90
37446;DHT22;23307;51.136;14.942;2023-11-19T12:45:09;11.20;99.90
37446;DHT22;23307;51.136;14.942;2023-11-19T12:47:36;11.00;99.90
37446;DHT22;23307;51.136;14.942;2023-11-19T12:50:02;10.90;99.90
37446;DHT22;23307;51.136;14.942;2023-11-19T12:52:29;10.70;99.90
37446;DHT22;23307;51.136;14.942;2023-11-19T12:54:55;10.50;99.90
37446;DHT22;23307;51.136;14.942;2023-11-19T12:57:20;10.40;99.90
37446;DHT22;23307;51.136;14.942;2023-11-19T12:59:55;10.30;99.90
37446;DHT22;23307;51.136;14.942;2023-11-19T13:02:22;10.20;99.90
37446;DHT22;23307;51.136;14.942;2023-11-19T13:04:48;10.10;99.90
37446;DHT22;23307;51.136;14.942;2023-11-19T13:07:20;10.10;99.90
37446;DHT22;23307;51.136;14.942;2023-11-19T13:09:46;10.10;99.90
37446;DHT22;23307;51.136;14.942;2023-11-19T13:12:13;10.10;99.90
37446;DHT22;23307;51.136;14.942;2023-11-19T13:14:39;10.20;99.90
37446;DHT22;23307;51.136;14.942;2023-11-19T13:17:07;10.20;99.90
37446;DHT22;23307;51.136;14.942;2023-11-19T13:19:33;10.30;99.90
37446;DHT22;23307;51.136;14.942;2023-11-19T13:21:59;10.30;99.90
37446;DHT22;23307;51.136;14.942;2023-11-19T13:24:24;10.30;99.90
37446;DHT22;23307;51.136;14.942;2023-11-19T13:26:50;10.30;99.90
37446;DHT22;23307;51.136;14.942;2023-11-19T13:29:15;10.30;99.90
37446;DHT22;23307;51.136;14.942;2023-11-19T13:31:41;10.30;99.90
37446;DHT22;23307;51.136;14.942;2023-11-19T13:34:06;10.30;99.90
37446;DHT22;23307;51.136;14.942;2023-11-19T13:36:33;10.40;99.90
37446;DHT22;23307;51.136;14.942;2023-11-19T13:38:59;10.50;99.90
37446;DHT22;23307;51.136;14.942;2023-11-19T13:41:25;10.60;99.90
37446;DHT22;23307;51.136;14.942;2023-11-19T13:43:51;10.50;99.90
37446;DHT22;23307;51.136;14.942;2023-11-19T13:46:17;10.60;99.90
37446;DHT22;23307;51.136;14.942;2023-11-19T13:48:42;10.60;99.90
37446;DHT22;23307;51.136;14.942;2023-11-19T13:51:08;10.60;99.90
37446;DHT22;23307;51.136;14.942;2023-11-19T13:53:35;10.60;99.90
37446;DHT22;23307;51.136;14.942;2023-11-19T13:56:00;10.60;99.90
37446;DHT22;23307;51.136;14.942;2023-11-19T13:58:26;10.70;99.90
37446;DHT22;23307;51.136;14.942;2023-11-19T14:00:51;10.70;99.90
37446;DHT22;23307;51.136;14.942;2023-11-19T14:03:17;10.70;99.90
37446;DHT22;23307;51.136;14.942;2023-11-19T14:05:43;10.70;99.90
37446;DHT22;23307;51.136;14.942;2023-11-19T14:08:09;10.70;99.90
37446;DHT22;23307;51.136;14.942;2023-11-19T14:10:38;10.70;99.90
37446;DHT22;23307;51.136;14.942;2023-11-19T14:13:06;10.70;99.90
37446;DHT22;23307;51.136;14.942;2023-11-19T14:15:31;10.60;99.90
37446;DHT22;23307;51.136;14.942;2023-11-19T14:17:56;10.60;99.90
37446;DHT22;23307;51.136;14.942;2023-11-19T14:20:22;10.60;99.90
37446;DHT22;23307;51.136;14.942;2023-11-19T14:22:48;10.60;99.90
37446;DHT22;23307;51.136;14.942;2023-11-19T14:25:14;10.50;99.90
37446;DHT22;23307;51.136;14.942;2023-11-19T14:27:41;10.60;99.90
37446;DHT22;23307;51.136;14.942;2023-11-19T14:30:11;10.50;99.90
37446;DHT22;23307;51.136;14.942;2023-11-19T14:32:38;10.50;99.90
37446;DHT22;23307;51.136;14.942;2023-11-19T14:35:05;10.40;99.90
37446;DHT22;23307;51.136;14.942;2023-11-19T14:37:30;10.40;99.90
37446;DHT22;23307;51.136;14.942;2023-11-19T14:39:57;10.30;99.90
37446;DHT22;23307;51.136;14.942;2023-11-19T14:42:26;10.20;99.90
37446;DHT22;23307;51.136;14.942;2023-11-19T14:44:55;10.20;99.90
37446;DHT22;23307;51.136;14.942;2023-11-19T14:47:24;10.10;99.90
37446;DHT22;23307;51.136;14.942;2023-11-19T14:49:50;10.10;99.90
37446;DHT22;23307;51.136;14.942;2023-11-19T14:52:15;10.10;99.90
37446;DHT22;23307;51.136;14.942;2023-11-19T14:54:41;10.10;99.90
37446;DHT22;23307;51.136;14.942;2023-11-19T14:57:07;10.10;99.90
37446;DHT22;23307;51.136;14.942;2023-11-19T14:59:38;10.00;99.90
37446;DHT22;23307;51.136;14.942;2023-11-19T15:02:04;9.90;99.90
37446;DHT22;23307;51.136;14.942;2023-11-19T15:04:31;9.90;99.90
37446;DHT22;23307;51.136;14.942;2023-11-19T15:06:57;9.80;99.90
37446;DHT22;23307;51.136;14.942;2023-11-19T15:09:23;9.80;99.90
37446;DHT22;23307;51.136;14.942;2023-11-19T15:11:49;9.80;99.90
37446;DHT22;23307;51.136;14.942;2023-11-19T15:14:16;9.70;99.90
37446;DHT22;23307;51.136;14.942;2023-11-19T15:16:44;9.50;99.90
37446;DHT22;23307;51.136;14.942;2023-11-19T15:19:10;9.40;99.90
37446;DHT22;23307;51.136;14.942;2023-11-19T15:21:37;9.20;99.90
37446;DHT22;23307;51.136;14.942;2023-11-19T15:24:03;9.00;99.90
37446;DHT22;23307;51.136;14.942;2023-11-19T15:26:33;9.00;99.90
37446;DHT22;23307;51.136;14.942;2023-11-19T15:28:59;8.90;99.90
37446;DHT22;23307;51.136;14.942;2023-11-19T15:31:24;8.90;99.90
37446;DHT22;23307;51.136;14.942;2023-11-19T15:33:50;9.00;99.90
37446;DHT22;23307;51.136;14.942;2023-11-19T15:36:16;9.00;99.90
37446;DHT22;23307;51.136;14.942;2023-11-19T15:38:42;9.00;99.90
37446;DHT22;23307;51.136;14.942;2023-11-19T15:41:08;9.10;99.90
37446;DHT22;23307;51.136;14.942;2023-11-19T15:43:34;9.20;99.90
37446;DHT22;23307;51.136;14.942;2023-11-19T15:45:59;9.20;99.90